sensor_id;sensor_type;location;lat;lon;timestamp;P1;durP1;ratioP1;P2;durP2;ratioP2
25125;SDS011;13106;50.808;5.670;2023-11-21T00:00:31;48.50;;;22.35;;
25125;SDS011;13106;50.808;5.670;2023-11-21T00:02:57;50.42;;;22.48;;
25125;SDS011;13106;50.808;5.670;2023-11-21T00:05:23;49.22;;;22.98;;
25125;SDS011;13106;50.808;5.670;2023-11-21T00:07:49;55.95;;;24.23;;
25125;SDS011;13106;50.808;5.670;2023-11-21T00:10:16;54.78;;;23.73;;
25125;SDS011;13106;50.808;5.670;2023-11-21T00:12:42;52.40;;;23.53;;
25125;SDS011;13106;50.808;5.670;2023-11-21T00:15:09;55.45;;;24.08;;
25125;SDS011;13106;50.808;5.670;2023-11-21T00:17:38;51.77;;;22.73;;
25125;SDS011;13106;50.808;5.670;2023-11-21T00:20:05;44.70;;;21.92;;
25125;SDS011;13106;50.808;5.670;2023-11-21T00:22:32;43.73;;;22.30;;
25125;SDS011;13106;50.808;5.670;2023-11-21T00:24:58;45.63;;;23.30;;
25125;SDS011;13106;50.808;5.670;2023-11-21T00:27:24;47.20;;;22.08;;
25125;SDS011;13106;50.808;5.670;2023-11-21T00:29:50;46.72;;;22.35;;
25125;SDS011;13106;50.808;5.670;2023-11-21T00:32:16;49.22;;;23.20;;
25125;SDS011;13106;50.808;5.670;2023-11-21T00:34:42;46.00;;;22.50;;
25125;SDS011;13106;50.808;5.670;2023-11-21T00:37:09;49.93;;;24.30;;
25125;SDS011;13106;50.808;5.670;2023-11-21T00:39:35;49.53;;;23.50;;
25125;SDS011;13106;50.808;5.670;2023-11-21T00:42:01;48.47;;;23.70;;
25125;SDS011;13106;50.808;5.670;2023-11-21T00:44:27;44.30;;;21.67;;
25125;SDS011;13106;50.808;5.670;2023-11-21T00:46:53;42.67;;;21.83;;
25125;SDS011;13106;50.808;5.670;2023-11-21T00:49:19;46.45;;;23.30;;
25125;SDS011;13106;50.808;5.670;2023-11-21T00:51:45;55.70;;;26.85;;
25125;SDS011;13106;50.808;5.670;2023-11-21T00:54:11;58.47;;;25.20;;
25125;SDS011;13106;50.808;5.670;2023-11-21T00:56:37;55.38;;;24.83;;
25125;SDS011;13106;50.808;5.670;2023-11-21T00:59:05;58.17;;;26.92;;
25125;SDS011;13106;50.808;5.670;2023-11-21T01:01:32;59.78;;;26.60;;
25125;SDS011;13106;50.808;5.670;2023-11-21T01:03:58;62.25;;;26.17;;
25125;SDS011;13106;50.808;5.670;2023-11-21T01:06:24;62.67;;;25.58;;
25125;SDS011;13106;50.808;5.670;2023-11-21T01:08:50;62.10;;;25.77;;
25125;SDS011;13106;50.808;5.670;2023-11-21T01:11:16;58.35;;;25.92;;
25125;SDS011;13106;50.808;5.670;2023-11-21T01:13:42;57.60;;;25.58;;
25125;SDS011;13106;50.808;5.670;2023-11-21T01:16:09;60.17;;;25.88;;
25125;SDS011;13106;50.808;5.670;2023-11-21T01:18:36;55.20;;;24.52;;
25125;SDS011;13106;50.808;5.670;2023-11-21T01:21:02;56.03;;;24.83;;
25125;SDS011;13106;50.808;5.670;2023-11-21T01:23:29;57.20;;;24.95;;
25125;SDS011;13106;50.808;5.670;2023-11-21T01:25:55;60.88;;;25.67;;
25125;SDS011;13106;50.808;5.670;2023-11-21T01:28:22;62.20;;;25.63;;
25125;SDS011;13106;50.808;5.670;2023-11-21T01:30:48;59.42;;;25.00;;
25125;SDS011;13106;50.808;5.670;2023-11-21T01:33:14;60.03;;;26.60;;
25125;SDS011;13106;50.808;5.670;2023-11-21T01:35:41;61.53;;;25.50;;
25125;SDS011;13106;50.808;5.670;2023-11-21T01:38:07;57.63;;;25.33;;
25125;SDS011;13106;50.808;5.670;2023-11-21T01:40:33;58.13;;;26.48;;
25125;SDS011;13106;50.808;5.670;2023-11-21T01:42:59;57.08;;;25.08;;
25125;SDS011;13106;50.808;5.670;2023-11-21T01:45:28;57.47;;;25.52;;
25125;SDS011;13106;50.808;5.670;2023-11-21T01:47:56;54.72;;;24.60;;
25125;SDS011;13106;50.808;5.670;2023-11-21T01:50:23;60.20;;;25.50;;
25125;SDS011;13106;50.808;5.670;2023-11-21T01:52:49;53.70;;;24.20;;
25125;SDS011;13106;50.808;5.670;2023-11-21T01:55:16;57.22;;;25.48;;
25125;SDS011;13106;50.808;5.670;2023-11-21T01:57:45;55.27;;;25.20;;
25125;SDS011;13106;50.808;5.670;2023-11-21T02:00:12;56.15;;;24.25;;
25125;SDS011;13106;50.808;5.670;2023-11-21T02:02:42;54.35;;;24.85;;
25125;SDS011;13106;50.808;5.670;2023-11-21T02:05:09;56.47;;;25.65;;
25125;SDS011;13106;50.808;5.670;2023-11-21T02:07:37;52.33;;;23.95;;
25125;SDS011;13106;50.808;5.670;2023-11-21T02:10:03;51.63;;;23.33;;
25125;SDS011;13106;50.808;5.670;2023-11-21T02:12:29;42.50;;;22.27;;
25125;SDS011;13106;50.808;5.670;2023-11-21T02:14:55;46.30;;;22.25;;
25125;SDS011;13106;50.808;5.670;2023-11-21T02:17:21;44.78;;;22.17;;
25125;SDS011;13106;50.808;5.670;2023-11-21T02:19:47;42.63;;;21.90;;
25125;SDS011;13106;50.808;5.670;2023-11-21T02:22:16;42.33;;;21.33;;
25125;SDS011;13106;50.808;5.670;2023-11-21T02:24:43;42.40;;;20.63;;
25125;SDS011;13106;50.808;5.670;2023-11-21T02:27:09;41.72;;;20.70;;
25125;SDS011;13106;50.808;5.670;2023-11-21T02:29:35;40.57;;;20.33;;
25125;SDS011;13106;50.808;5.670;2023-11-21T02:32:01;34.05;;;19.20;;
25125;SDS011;13106;50.808;5.670;2023-11-21T02:34:27;37.50;;;19.80;;
25125;SDS011;13106;50.808;5.670;2023-11-21T02:36:53;42.63;;;21.70;;
25125;SDS011;13106;50.808;5.670;2023-11-21T02:39:19;44.20;;;22.33;;
25125;SDS011;13106;50.808;5.670;2023-11-21T02:41:49;43.55;;;21.17;;
25125;SDS011;13106;50.808;5.670;2023-11-21T02:44:15;40.47;;;21.27;;
25125;SDS011;13106;50.808;5.670;2023-11-21T02:46:41;40.03;;;20.90;;
25125;SDS011;13106;50.808;5.670;2023-11-21T02:49:08;36.55;;;18.95;;
25125;SDS011;13106;50.808;5.670;2023-11-21T02:51:36;34.63;;;19.25;;
25125;SDS011;13106;50.808;5.670;2023-11-21T02:54:03;36.80;;;19.30;;
25125;SDS011;13106;50.808;5.670;2023-11-21T02:56:31;34.28;;;18.17;;
25125;SDS011;13106;50.808;5.670;2023-11-21T02:58:59;37.15;;;18.98;;
25125;SDS011;13106;50.808;5.670;2023-11-21T03:01:25;35.45;;;19.10;;
25125;SDS011;13106;50.808;5.670;2023-11-21T03:03:51;36.60;;;20.05;;
25125;SDS011;13106;50.808;5.670;2023-11-21T03:06:18;38.63;;;20.17;;
25125;SDS011;13106;50.808;5.670;2023-11-21T03:08:44;39.25;;;20.13;;
25125;SDS011;13106;50.808;5.670;2023-11-21T03:11:10;33.55;;;19.15;;
25125;SDS011;13106;50.808;5.670;2023-11-21T03:13:38;35.13;;;19.80;;
25125;SDS011;13106;50.808;5.670;2023-11-21T03:16:04;33.70;;;18.02;;
25125;SDS011;13106;50.808;5.670;2023-11-21T03:18:31;34.15;;;19.33;;
25125;SDS011;13106;50.808;5.670;2023-11-21T03:20:57;31.50;;;18.50;;
25125;SDS011;13106;50.808;5.670;2023-11-21T03:23:23;33.47;;;18.92;;
25125;SDS011;13106;50.808;5.670;2023-11-21T03:25:49;38.22;;;20.48;;
25125;SDS011;13106;50.808;5.670;2023-11-21T03:28:15;35.67;;;19.60;;
25125;SDS011;13106;50.808;5.670;2023-11-21T03:30:41;35.53;;;19.33;;
25125;SDS011;13106;50.808;5.670;2023-11-21T03:33:07;35.88;;;20.20;;
25125;SDS011;13106;50.808;5.670;2023-11-21T03:35:33;39.95;;;21.02;;
25125;SDS011;13106;50.808;5.670;2023-11-21T03:38:00;38.17;;;20.98;;
25125;SDS011;13106;50.808;5.670;2023-11-21T03:40:26;39.38;;;20.23;;
25125;SDS011;13106;50.808;5.670;2023-11-21T03:42:52;39.40;;;20.33;;
25125;SDS011;13106;50.808;5.670;2023-11-21T03:45:18;36.55;;;19.88;;
25125;SDS011;13106;50.808;5.670;2023-11-21T03:47:44;35.63;;;19.25;;
25125;SDS011;13106;50.808;5.670;2023-11-21T03:50:10;37.33;;;20.15;;
25125;SDS011;13106;50.808;5.670;2023-11-21T03:52:36;36.97;;;19.17;;
25125;SDS011;13106;50.808;5.670;2023-11-21T03:55:03;36.30;;;19.80;;
25125;SDS011;13106;50.808;5.670;2023-11-21T03:57:32;36.90;;;20.20;;
25125;SDS011;13106;50.808;5.670;2023-11-21T03:59:58;40.10;;;20.73;;
25125;SDS011;13106;50.808;5.670;2023-11-21T04:02:24;40.95;;;21.30;;
25125;SDS011;13106;50.808;5.670;2023-11-21T04:04:51;41.10;;;20.90;;
25125;SDS011;13106;50.808;5.670;2023-11-21T04:07:17;39.35;;;20.67;;
25125;SDS011;13106;50.808;5.670;2023-11-21T04:09:43;41.90;;;20.83;;
25125;SDS011;13106;50.808;5.670;2023-11-21T04:12:09;38.50;;;19.90;;
25125;SDS011;13106;50.808;5.670;2023-11-21T04:14:35;38.67;;;19.73;;
25125;SDS011;13106;50.808;5.670;2023-11-21T04:17:01;38.25;;;19.83;;
25125;SDS011;13106;50.808;5.670;2023-11-21T04:19:29;46.08;;;21.42;;
25125;SDS011;13106;50.808;5.670;2023-11-21T04:21:55;39.75;;;19.48;;
25125;SDS011;13106;50.808;5.670;2023-11-21T04:24:21;42.50;;;20.83;;
25125;SDS011;13106;50.808;5.670;2023-11-21T04:26:47;42.85;;;20.02;;
25125;SDS011;13106;50.808;5.670;2023-11-21T04:29:13;39.63;;;19.30;;
25125;SDS011;13106;50.808;5.670;2023-11-21T04:31:39;42.85;;;20.45;;
25125;SDS011;13106;50.808;5.670;2023-11-21T04:34:06;43.50;;;20.17;;
25125;SDS011;13106;50.808;5.670;2023-11-21T04:36:33;45.63;;;20.90;;
25125;SDS011;13106;50.808;5.670;2023-11-21T04:39:00;42.92;;;20.90;;
25125;SDS011;13106;50.808;5.670;2023-11-21T04:41:26;43.97;;;21.50;;
25125;SDS011;13106;50.808;5.670;2023-11-21T04:43:52;43.73;;;21.17;;
25125;SDS011;13106;50.808;5.670;2023-11-21T04:46:18;43.80;;;21.38;;
25125;SDS011;13106;50.808;5.670;2023-11-21T04:48:44;43.45;;;21.13;;
25125;SDS011;13106;50.808;5.670;2023-11-21T04:51:10;42.33;;;20.90;;
25125;SDS011;13106;50.808;5.670;2023-11-21T04:53:37;45.45;;;20.15;;
25125;SDS011;13106;50.808;5.670;2023-11-21T04:56:04;45.50;;;20.42;;
25125;SDS011;13106;50.808;5.670;2023-11-21T04:58:31;45.83;;;20.80;;
25125;SDS011;13106;50.808;5.670;2023-11-21T05:00:58;47.92;;;20.73;;
25125;SDS011;13106;50.808;5.670;2023-11-21T05:03:24;49.20;;;21.10;;
25125;SDS011;13106;50.808;5.670;2023-11-21T05:05:51;53.20;;;22.23;;
25125;SDS011;13106;50.808;5.670;2023-11-21T05:08:17;51.05;;;21.58;;
25125;SDS011;13106;50.808;5.670;2023-11-21T05:10:45;50.63;;;22.05;;
25125;SDS011;13106;50.808;5.670;2023-11-21T05:13:11;50.47;;;21.67;;
25125;SDS011;13106;50.808;5.670;2023-11-21T05:15:37;54.70;;;21.20;;
25125;SDS011;13106;50.808;5.670;2023-11-21T05:18:04;58.88;;;22.20;;
25125;SDS011;13106;50.808;5.670;2023-11-21T05:20:31;52.75;;;22.30;;
25125;SDS011;13106;50.808;5.670;2023-11-21T05:22:58;54.05;;;22.00;;
25125;SDS011;13106;50.808;5.670;2023-11-21T05:25:24;58.28;;;22.25;;
25125;SDS011;13106;50.808;5.670;2023-11-21T05:27:50;56.35;;;22.00;;
25125;SDS011;13106;50.808;5.670;2023-11-21T05:30:17;57.50;;;21.77;;
25125;SDS011;13106;50.808;5.670;2023-11-21T05:32:43;56.15;;;21.42;;
25125;SDS011;13106;50.808;5.670;2023-11-21T05:35:09;60.28;;;22.00;;
25125;SDS011;13106;50.808;5.670;2023-11-21T05:37:40;63.95;;;22.90;;
25125;SDS011;13106;50.808;5.670;2023-11-21T05:40:07;64.32;;;23.30;;
25125;SDS011;13106;50.808;5.670;2023-11-21T05:42:33;63.40;;;23.55;;
25125;SDS011;13106;50.808;5.670;2023-11-21T05:44:59;67.72;;;23.83;;
25125;SDS011;13106;50.808;5.670;2023-11-21T05:47:39;68.10;;;24.08;;
25125;SDS011;13106;50.808;5.670;2023-11-21T05:50:05;78.55;;;27.05;;
25125;SDS011;13106;50.808;5.670;2023-11-21T05:52:35;76.78;;;26.45;;
25125;SDS011;13106;50.808;5.670;2023-11-21T05:55:01;85.25;;;28.00;;
25125;SDS011;13106;50.808;5.670;2023-11-21T05:57:27;88.75;;;27.75;;
25125;SDS011;13106;50.808;5.670;2023-11-21T05:59:53;85.90;;;27.80;;
25125;SDS011;13106;50.808;5.670;2023-11-21T06:02:19;77.53;;;26.30;;
25125;SDS011;13106;50.808;5.670;2023-11-21T06:04:46;79.78;;;27.08;;
25125;SDS011;13106;50.808;5.670;2023-11-21T06:07:12;74.10;;;26.73;;
25125;SDS011;13106;50.808;5.670;2023-11-21T06:09:38;75.95;;;27.13;;
25125;SDS011;13106;50.808;5.670;2023-11-21T06:12:04;71.28;;;27.40;;
25125;SDS011;13106;50.808;5.670;2023-11-21T06:14:30;69.10;;;25.73;;
25125;SDS011;13106;50.808;5.670;2023-11-21T06:17:00;70.93;;;27.13;;
25125;SDS011;13106;50.808;5.670;2023-11-21T06:19:26;66.00;;;25.35;;
25125;SDS011;13106;50.808;5.670;2023-11-21T06:21:52;59.90;;;24.25;;
25125;SDS011;13106;50.808;5.670;2023-11-21T06:24:18;63.20;;;25.43;;
25125;SDS011;13106;50.808;5.670;2023-11-21T06:26:45;58.78;;;23.48;;
25125;SDS011;13106;50.808;5.670;2023-11-21T06:29:13;65.13;;;23.50;;
25125;SDS011;13106;50.808;5.670;2023-11-21T06:31:40;66.93;;;24.95;;
25125;SDS011;13106;50.808;5.670;2023-11-21T06:34:06;63.60;;;23.87;;
25125;SDS011;13106;50.808;5.670;2023-11-21T06:36:34;65.97;;;24.75;;
25125;SDS011;13106;50.808;5.670;2023-11-21T06:39:00;68.32;;;24.70;;
25125;SDS011;13106;50.808;5.670;2023-11-21T06:41:26;73.10;;;25.38;;
25125;SDS011;13106;50.808;5.670;2023-11-21T06:43:52;69.60;;;25.20;;
25125;SDS011;13106;50.808;5.670;2023-11-21T06:46:18;73.80;;;25.33;;
25125;SDS011;13106;50.808;5.670;2023-11-21T06:48:44;75.63;;;24.63;;
25125;SDS011;13106;50.808;5.670;2023-11-21T06:51:10;78.85;;;24.80;;
25125;SDS011;13106;50.808;5.670;2023-11-21T06:53:38;75.47;;;24.85;;
25125;SDS011;13106;50.808;5.670;2023-11-21T06:56:04;79.75;;;25.52;;
25125;SDS011;13106;50.808;5.670;2023-11-21T06:58:30;80.43;;;23.67;;
25125;SDS011;13106;50.808;5.670;2023-11-21T07:00:56;75.88;;;24.38;;
25125;SDS011;13106;50.808;5.670;2023-11-21T07:03:23;68.03;;;23.48;;
25125;SDS011;13106;50.808;5.670;2023-11-21T07:05:50;76.32;;;24.45;;
25125;SDS011;13106;50.808;5.670;2023-11-21T07:08:16;83.03;;;23.83;;
25125;SDS011;13106;50.808;5.670;2023-11-21T07:10:42;84.38;;;24.63;;
25125;SDS011;13106;50.808;5.670;2023-11-21T07:13:08;92.22;;;26.45;;
25125;SDS011;13106;50.808;5.670;2023-11-21T07:15:37;90.28;;;26.48;;
25125;SDS011;13106;50.808;5.670;2023-11-21T07:18:03;96.68;;;25.83;;
25125;SDS011;13106;50.808;5.670;2023-11-21T07:20:32;100.45;;;26.70;;
25125;SDS011;13106;50.808;5.670;2023-11-21T07:22:58;99.55;;;26.75;;
25125;SDS011;13106;50.808;5.670;2023-11-21T07:25:25;99.65;;;26.75;;
25125;SDS011;13106;50.808;5.670;2023-11-21T07:27:51;109.20;;;26.98;;
25125;SDS011;13106;50.808;5.670;2023-11-21T07:30:18;103.35;;;27.15;;
25125;SDS011;13106;50.808;5.670;2023-11-21T07:32:44;105.35;;;28.20;;
25125;SDS011;13106;50.808;5.670;2023-11-21T07:35:12;101.65;;;27.08;;
25125;SDS011;13106;50.808;5.670;2023-11-21T07:37:38;101.88;;;26.13;;
25125;SDS011;13106;50.808;5.670;2023-11-21T07:40:05;110.15;;;27.92;;
25125;SDS011;13106;50.808;5.670;2023-11-21T07:42:33;106.22;;;27.85;;
25125;SDS011;13106;50.808;5.670;2023-11-21T07:44:59;109.75;;;29.27;;
25125;SDS011;13106;50.808;5.670;2023-11-21T07:47:25;104.78;;;29.02;;
25125;SDS011;13106;50.808;5.670;2023-11-21T07:49:52;101.63;;;28.20;;
25125;SDS011;13106;50.808;5.670;2023-11-21T07:52:20;111.77;;;30.87;;
25125;SDS011;13106;50.808;5.670;2023-11-21T07:54:46;107.43;;;29.93;;
25125;SDS011;13106;50.808;5.670;2023-11-21T07:57:12;113.37;;;30.13;;
25125;SDS011;13106;50.808;5.670;2023-11-21T07:59:40;101.20;;;29.23;;
25125;SDS011;13106;50.808;5.670;2023-11-21T08:02:06;76.20;;;26.55;;
25125;SDS011;13106;50.808;5.670;2023-11-21T08:04:32;68.45;;;25.98;;
25125;SDS011;13106;50.808;5.670;2023-11-21T08:07:00;66.00;;;24.55;;
25125;SDS011;13106;50.808;5.670;2023-11-21T08:09:26;64.00;;;24.23;;
25125;SDS011;13106;50.808;5.670;2023-11-21T08:11:52;58.20;;;22.40;;
25125;SDS011;13106;50.808;5.670;2023-11-21T08:14:19;68.00;;;24.15;;
25125;SDS011;13106;50.808;5.670;2023-11-21T08:16:45;63.13;;;23.25;;
25125;SDS011;13106;50.808;5.670;2023-11-21T08:19:12;68.30;;;23.52;;
25125;SDS011;13106;50.808;5.670;2023-11-21T08:21:38;65.50;;;24.60;;
25125;SDS011;13106;50.808;5.670;2023-11-21T08:24:06;66.55;;;23.95;;
25125;SDS011;13106;50.808;5.670;2023-11-21T08:26:35;69.72;;;23.65;;
25125;SDS011;13106;50.808;5.670;2023-11-21T08:29:01;62.85;;;23.75;;
25125;SDS011;13106;50.808;5.670;2023-11-21T08:31:27;66.15;;;24.10;;
25125;SDS011;13106;50.808;5.670;2023-11-21T08:33:54;74.07;;;26.92;;
25125;SDS011;13106;50.808;5.670;2023-11-21T08:36:21;67.40;;;22.13;;
25125;SDS011;13106;50.808;5.670;2023-11-21T08:38:49;57.08;;;21.42;;
25125;SDS011;13106;50.808;5.670;2023-11-21T08:41:17;65.50;;;22.85;;
25125;SDS011;13106;50.808;5.670;2023-11-21T08:43:47;63.38;;;22.20;;
25125;SDS011;13106;50.808;5.670;2023-11-21T08:46:13;62.30;;;21.93;;
25125;SDS011;13106;50.808;5.670;2023-11-21T08:48:40;63.00;;;26.23;;
25125;SDS011;13106;50.808;5.670;2023-11-21T08:51:10;65.10;;;22.25;;
25125;SDS011;13106;50.808;5.670;2023-11-21T08:53:39;65.72;;;23.15;;
25125;SDS011;13106;50.808;5.670;2023-11-21T08:56:05;67.50;;;22.77;;
25125;SDS011;13106;50.808;5.670;2023-11-21T08:58:31;63.40;;;22.30;;
25125;SDS011;13106;50.808;5.670;2023-11-21T09:00:57;65.60;;;22.55;;
25125;SDS011;13106;50.808;5.670;2023-11-21T09:03:23;61.97;;;22.27;;
25125;SDS011;13106;50.808;5.670;2023-11-21T09:05:50;63.53;;;22.40;;
25125;SDS011;13106;50.808;5.670;2023-11-21T09:08:16;64.45;;;22.63;;
25125;SDS011;13106;50.808;5.670;2023-11-21T09:10:42;60.03;;;22.25;;
25125;SDS011;13106;50.808;5.670;2023-11-21T09:13:12;60.17;;;21.50;;
25125;SDS011;13106;50.808;5.670;2023-11-21T09:15:38;55.75;;;21.42;;
25125;SDS011;13106;50.808;5.670;2023-11-21T09:18:05;63.17;;;21.75;;
25125;SDS011;13106;50.808;5.670;2023-11-21T09:20:31;55.17;;;20.50;;
25125;SDS011;13106;50.808;5.670;2023-11-21T09:22:57;55.70;;;20.27;;
25125;SDS011;13106;50.808;5.670;2023-11-21T09:25:23;60.03;;;21.02;;
25125;SDS011;13106;50.808;5.670;2023-11-21T09:27:49;62.67;;;22.40;;
25125;SDS011;13106;50.808;5.670;2023-11-21T09:30:15;57.60;;;21.13;;
25125;SDS011;13106;50.808;5.670;2023-11-21T09:32:41;62.78;;;21.08;;
25125;SDS011;13106;50.808;5.670;2023-11-21T09:35:10;63.53;;;23.88;;
25125;SDS011;13106;50.808;5.670;2023-11-21T09:37:36;70.57;;;24.98;;
25125;SDS011;13106;50.808;5.670;2023-11-21T09:40:03;68.18;;;25.17;;
25125;SDS011;13106;50.808;5.670;2023-11-21T09:42:31;66.82;;;24.58;;
25125;SDS011;13106;50.808;5.670;2023-11-21T09:47:40;63.08;;;23.05;;
25125;SDS011;13106;50.808;5.670;2023-11-21T09:50:07;64.10;;;23.23;;
25125;SDS011;13106;50.808;5.670;2023-11-21T09:52:44;60.40;;;22.90;;
25125;SDS011;13106;50.808;5.670;2023-11-21T09:55:13;67.10;;;23.80;;
25125;SDS011;13106;50.808;5.670;2023-11-21T09:57:41;66.20;;;23.00;;
25125;SDS011;13106;50.808;5.670;2023-11-21T10:00:07;59.47;;;22.00;;
25125;SDS011;13106;50.808;5.670;2023-11-21T10:02:36;63.20;;;22.88;;
25125;SDS011;13106;50.808;5.670;2023-11-21T10:05:03;62.97;;;23.77;;
25125;SDS011;13106;50.808;5.670;2023-11-21T10:07:30;63.83;;;23.20;;
25125;SDS011;13106;50.808;5.670;2023-11-21T10:09:57;69.88;;;25.00;;
25125;SDS011;13106;50.808;5.670;2023-11-21T10:12:24;72.47;;;25.67;;
25125;SDS011;13106;50.808;5.670;2023-11-21T10:14:52;63.92;;;23.55;;
25125;SDS011;13106;50.808;5.670;2023-11-21T10:17:20;66.83;;;23.57;;
25125;SDS011;13106;50.808;5.670;2023-11-21T10:19:51;59.78;;;21.95;;
25125;SDS011;13106;50.808;5.670;2023-11-21T10:22:19;62.23;;;22.10;;
25125;SDS011;13106;50.808;5.670;2023-11-21T10:24:45;64.43;;;27.35;;
25125;SDS011;13106;50.808;5.670;2023-11-21T10:27:11;64.80;;;22.55;;
25125;SDS011;13106;50.808;5.670;2023-11-21T10:29:39;66.27;;;25.33;;
25125;SDS011;13106;50.808;5.670;2023-11-21T10:32:06;66.20;;;24.67;;
25125;SDS011;13106;50.808;5.670;2023-11-21T10:34:32;78.47;;;30.25;;
25125;SDS011;13106;50.808;5.670;2023-11-21T10:36:59;61.08;;;23.15;;
25125;SDS011;13106;50.808;5.670;2023-11-21T10:39:36;68.18;;;24.42;;
25125;SDS011;13106;50.808;5.670;2023-11-21T10:42:02;62.97;;;23.90;;
25125;SDS011;13106;50.808;5.670;2023-11-21T10:44:28;54.45;;;23.17;;
25125;SDS011;13106;50.808;5.670;2023-11-21T10:46:54;63.33;;;24.58;;
25125;SDS011;13106;50.808;5.670;2023-11-21T10:49:26;60.95;;;23.27;;
25125;SDS011;13106;50.808;5.670;2023-11-21T10:51:55;68.13;;;24.83;;
25125;SDS011;13106;50.808;5.670;2023-11-21T10:54:23;60.25;;;23.40;;
25125;SDS011;13106;50.808;5.670;2023-11-21T10:56:51;56.78;;;23.30;;
25125;SDS011;13106;50.808;5.670;2023-11-21T10:59:18;51.65;;;21.02;;
25125;SDS011;13106;50.808;5.670;2023-11-21T11:01:49;52.35;;;22.08;;
25125;SDS011;13106;50.808;5.670;2023-11-21T11:04:18;52.22;;;22.23;;
25125;SDS011;13106;50.808;5.670;2023-11-21T11:06:44;55.10;;;22.55;;
25125;SDS011;13106;50.808;5.670;2023-11-21T11:09:11;49.10;;;20.80;;
25125;SDS011;13106;50.808;5.670;2023-11-21T11:11:41;50.58;;;21.67;;
25125;SDS011;13106;50.808;5.670;2023-11-21T11:14:12;42.63;;;19.85;;
25125;SDS011;13106;50.808;5.670;2023-11-21T11:16:39;46.92;;;19.27;;
25125;SDS011;13106;50.808;5.670;2023-11-21T11:19:08;45.40;;;20.30;;
25125;SDS011;13106;50.808;5.670;2023-11-21T11:26:46;47.50;;;20.42;;
25125;SDS011;13106;50.808;5.670;2023-11-21T11:34:28;42.73;;;18.53;;
25125;SDS011;13106;50.808;5.670;2023-11-21T11:42:01;34.83;;;18.20;;
25125;SDS011;13106;50.808;5.670;2023-11-21T11:52:48;41.90;;;18.00;;
25125;SDS011;13106;50.808;5.670;2023-11-21T11:55:19;42.03;;;17.77;;
25125;SDS011;13106;50.808;5.670;2023-11-21T11:57:46;39.08;;;17.58;;
25125;SDS011;13106;50.808;5.670;2023-11-21T12:02:50;39.55;;;17.75;;
25125;SDS011;13106;50.808;5.670;2023-11-21T12:05:20;39.28;;;16.50;;
25125;SDS011;13106;50.808;5.670;2023-11-21T12:07:47;39.88;;;16.58;;
25125;SDS011;13106;50.808;5.670;2023-11-21T12:10:16;37.73;;;16.10;;
25125;SDS011;13106;50.808;5.670;2023-11-21T12:12:44;38.63;;;16.40;;
25125;SDS011;13106;50.808;5.670;2023-11-21T12:15:11;37.55;;;16.40;;
25125;SDS011;13106;50.808;5.670;2023-11-21T12:17:38;37.13;;;16.38;;
25125;SDS011;13106;50.808;5.670;2023-11-21T12:20:04;35.20;;;15.48;;
25125;SDS011;13106;50.808;5.670;2023-11-21T12:22:39;39.00;;;15.95;;
25125;SDS011;13106;50.808;5.670;2023-11-21T12:25:06;36.15;;;15.50;;
25125;SDS011;13106;50.808;5.670;2023-11-21T12:27:32;35.63;;;16.33;;
25125;SDS011;13106;50.808;5.670;2023-11-21T12:29:58;36.65;;;16.83;;
25125;SDS011;13106;50.808;5.670;2023-11-21T12:32:25;35.35;;;16.65;;
25125;SDS011;13106;50.808;5.670;2023-11-21T12:34:51;37.35;;;17.08;;
25125;SDS011;13106;50.808;5.670;2023-11-21T12:37:17;36.70;;;16.63;;
25125;SDS011;13106;50.808;5.670;2023-11-21T12:39:44;34.55;;;16.55;;
25125;SDS011;13106;50.808;5.670;2023-11-21T12:42:10;38.80;;;18.10;;
25125;SDS011;13106;50.808;5.670;2023-11-21T12:44:36;37.97;;;18.70;;
25125;SDS011;13106;50.808;5.670;2023-11-21T12:47:06;39.88;;;18.92;;
25125;SDS011;13106;50.808;5.670;2023-11-21T12:49:32;37.25;;;19.10;;
25125;SDS011;13106;50.808;5.670;2023-11-21T12:51:59;43.17;;;19.50;;
25125;SDS011;13106;50.808;5.670;2023-11-21T12:54:25;42.13;;;19.25;;
25125;SDS011;13106;50.808;5.670;2023-11-21T12:56:51;39.17;;;18.67;;
25125;SDS011;13106;50.808;5.670;2023-11-21T12:59:17;40.92;;;19.05;;
25125;SDS011;13106;50.808;5.670;2023-11-21T13:01:43;38.50;;;18.50;;
25125;SDS011;13106;50.808;5.670;2023-11-21T13:04:11;38.93;;;18.90;;
25125;SDS011;13106;50.808;5.670;2023-11-21T13:06:37;39.57;;;19.53;;
25125;SDS011;13106;50.808;5.670;2023-11-21T13:09:09;34.97;;;18.13;;
25125;SDS011;13106;50.808;5.670;2023-11-21T13:11:36;38.30;;;18.40;;
25125;SDS011;13106;50.808;5.670;2023-11-21T13:14:02;45.95;;;22.20;;
25125;SDS011;13106;50.808;5.670;2023-11-21T13:16:28;38.45;;;19.20;;
25125;SDS011;13106;50.808;5.670;2023-11-21T13:18:56;38.53;;;19.02;;
25125;SDS011;13106;50.808;5.670;2023-11-21T13:21:23;36.25;;;17.67;;
25125;SDS011;13106;50.808;5.670;2023-11-21T13:23:49;36.22;;;17.27;;
25125;SDS011;13106;50.808;5.670;2023-11-21T13:26:17;33.90;;;17.70;;
25125;SDS011;13106;50.808;5.670;2023-11-21T13:28:45;35.92;;;16.83;;
25125;SDS011;13106;50.808;5.670;2023-11-21T13:31:12;32.53;;;16.45;;
25125;SDS011;13106;50.808;5.670;2023-11-21T13:33:52;31.80;;;15.70;;
25125;SDS011;13106;50.808;5.670;2023-11-21T13:36:24;29.02;;;15.70;;
25125;SDS011;13106;50.808;5.670;2023-11-21T13:38:55;24.17;;;14.48;;
25125;SDS011;13106;50.808;5.670;2023-11-21T13:41:23;26.92;;;14.35;;
25125;SDS011;13106;50.808;5.670;2023-11-21T13:43:55;28.95;;;21.92;;
25125;SDS011;13106;50.808;5.670;2023-11-21T13:46:40;30.45;;;21.88;;
25125;SDS011;13106;50.808;5.670;2023-11-21T13:49:06;25.90;;;16.20;;
25125;SDS011;13106;50.808;5.670;2023-11-21T13:51:35;22.40;;;13.50;;
25125;SDS011;13106;50.808;5.670;2023-11-21T13:54:09;22.52;;;12.45;;
25125;SDS011;13106;50.808;5.670;2023-11-21T13:56:36;22.73;;;13.38;;
25125;SDS011;13106;50.808;5.670;2023-11-21T13:59:03;24.23;;;15.07;;
25125;SDS011;13106;50.808;5.670;2023-11-21T14:01:41;21.88;;;12.65;;
25125;SDS011;13106;50.808;5.670;2023-11-21T14:04:19;25.67;;;19.92;;
25125;SDS011;13106;50.808;5.670;2023-11-21T14:06:59;22.30;;;14.40;;
25125;SDS011;13106;50.808;5.670;2023-11-21T14:09:36;26.98;;;21.17;;
25125;SDS011;13106;50.808;5.670;2023-11-21T14:12:08;24.57;;;17.37;;
25125;SDS011;13106;50.808;5.670;2023-11-21T14:14:37;29.08;;;26.10;;
25125;SDS011;13106;50.808;5.670;2023-11-21T14:17:04;26.40;;;23.67;;
25125;SDS011;13106;50.808;5.670;2023-11-21T14:19:32;19.42;;;12.18;;
25125;SDS011;13106;50.808;5.670;2023-11-21T14:21:59;19.05;;;12.23;;
25125;SDS011;13106;50.808;5.670;2023-11-21T14:24:26;19.57;;;13.37;;
25125;SDS011;13106;50.808;5.670;2023-11-21T14:26:54;18.48;;;11.98;;
25125;SDS011;13106;50.808;5.670;2023-11-21T14:29:20;17.73;;;11.20;;
25125;SDS011;13106;50.808;5.670;2023-11-21T14:31:47;18.13;;;10.75;;
25125;SDS011;13106;50.808;5.670;2023-11-21T14:34:15;19.50;;;11.43;;
25125;SDS011;13106;50.808;5.670;2023-11-21T14:36:42;18.98;;;11.43;;
25125;SDS011;13106;50.808;5.670;2023-11-21T14:39:09;18.33;;;11.85;;
25125;SDS011;13106;50.808;5.670;2023-11-21T14:41:47;18.00;;;11.43;;
25125;SDS011;13106;50.808;5.670;2023-11-21T14:44:13;18.43;;;11.33;;
25125;SDS011;13106;50.808;5.670;2023-11-21T14:46:40;18.25;;;11.45;;
25125;SDS011;13106;50.808;5.670;2023-11-21T14:49:11;18.60;;;11.63;;